Time;durP1;ratioP1;P1;durP2;ratioP2;P2;SDS_P1;SDS_P2;PMS_P1;PMS_P2;Temp;Humidity;BMP_temperature;BMP_pressure;BME280_temperature;BME280_humidity;BME280_pressure;Samples;Min_cycle;Max_cycle;Signal;HPM_P1;HPM_P2
2020/12/28 00:03:43;;;;;;;4.88;1.98;;;16.40;64.70;;;;;;10502648;28;20016;-59
2020/12/28 00:08:43;;;;;;;3.40;1.90;;;16.40;64.70;;;;;;10502448;28;20029;-59
2020/12/28 00:13:45;;;;;;;4.97;1.92;;;16.40;64.70;;;;;;10501984;28;20099;-60
2020/12/28 00:18:46;;;;;;;4.38;2.05;;;16.40;65.00;;;;;;10501911;28;20070;-59
2020/12/28 00:23:46;;;;;;;4.07;1.63;;;16.30;64.90;;;;;;10501804;28;20078;-59
2020/12/28 00:28:47;;;;;;;2.75;1.48;;;16.30;64.80;;;;;;10517331;28;20067;-59
2020/12/28 00:33:48;;;;;;;6.43;2.42;;;16.30;64.90;;;;;;10501255;28;20078;-60
2020/12/28 00:38:48;;;;;;;2.33;1.40;;;16.30;65.00;;;;;;10501183;28;20040;-59
2020/12/28 00:43:50;;;;;;;3.63;1.77;;;16.30;65.00;;;;;;10499639;28;20457;-59
2020/12/28 00:48:51;;;;;;;3.78;1.48;;;16.20;65.10;;;;;;10500810;28;20563;-59
2020/12/28 00:53:51;;;;;;;3.40;1.80;;;16.20;65.20;;;;;;10500624;28;20030;-59
2020/12/28 00:58:52;;;;;;;2.97;1.63;;;16.20;64.90;;;;;;10499355;28;20153;-59
2020/12/28 01:03:53;;;;;;;6.03;2.22;;;16.20;65.70;;;;;;10500428;28;20096;-59
2020/12/28 01:08:53;;;;;;;3.95;1.50;;;16.20;65.10;;;;;;10496121;28;20063;-59
2020/12/28 01:13:54;;;;;;;5.38;1.70;;;16.10;65.00;;;;;;10499620;28;20123;-60
2020/12/28 01:18:55;;;;;;;3.35;1.63;;;16.10;65.00;;;;;;10499686;28;20071;-59
2020/12/28 01:23:56;;;;;;;3.72;1.83;;;16.10;65.00;;;;;;10499400;28;20024;-60
2020/12/28 01:28:57;;;;;;;2.53;1.58;;;16.10;65.10;;;;;;10499394;28;20448;-59
2020/12/28 01:33:58;;;;;;;3.63;1.85;;;16.10;65.20;;;;;;10498844;28;20034;-59
2020/12/28 01:38:59;;;;;;;2.90;1.40;;;16.00;65.20;;;;;;10498872;28;20070;-59
2020/12/28 01:43:59;;;;;;;4.28;1.40;;;16.00;65.30;;;;;;10497398;28;20056;-59
2020/12/28 01:49:00;;;;;;;2.80;1.65;;;16.00;65.50;;;;;;10498331;28;20055;-59
2020/12/28 01:54:02;;;;;;;2.63;1.25;;;16.00;66.00;;;;;;10497735;28;20105;-60
2020/12/28 01:59:02;;;;;;;3.67;1.40;;;16.00;65.30;;;;;;10513582;28;20034;-60
2020/12/28 02:04:03;;;;;;;2.92;1.33;;;16.00;65.40;;;;;;10497297;28;20099;-60
2020/12/28 02:09:04;;;;;;;2.63;1.38;;;16.00;65.30;;;;;;10495859;28;20364;-60
2020/12/28 02:14:05;;;;;;;2.40;1.15;;;15.90;65.40;;;;;;10496979;28;20063;-60
2020/12/28 02:19:06;;;;;;;4.75;1.65;;;15.90;65.30;;;;;;10497091;28;20060;-59
2020/12/28 02:24:07;;;;;;;1.67;1.33;;;15.90;65.40;;;;;;10497276;28;20051;-59
2020/12/28 02:29:07;;;;;;;3.83;1.67;;;15.90;65.50;;;;;;10496917;28;20113;-59
2020/12/28 02:34:08;;;;;;;2.75;1.23;;;15.80;65.30;;;;;;10496875;28;20024;-59
2020/12/28 02:39:09;;;;;;;2.78;1.48;;;15.90;65.40;;;;;;10494591;28;20103;-59
2020/12/28 02:44:10;;;;;;;2.78;1.38;;;15.90;65.50;;;;;;10484510;28;20131;-60
2020/12/28 02:49:10;;;;;;;2.03;1.20;;;15.80;65.40;;;;;;10481024;28;20025;-60
2020/12/28 02:54:11;;;;;;;4.25;1.50;;;15.80;65.40;;;;;;10495518;28;20503;-60
2020/12/28 02:59:12;;;;;;;2.10;1.40;;;15.80;65.50;;;;;;10496269;28;20123;-59
2020/12/28 03:04:12;;;;;;;2.47;1.10;;;15.80;65.50;;;;;;10495361;28;20060;-59
2020/12/28 03:09:13;;;;;;;3.58;1.27;;;15.80;65.40;;;;;;10503226;28;20107;-60
2020/12/28 03:14:14;;;;;;;1.23;0.77;;;15.70;65.50;;;;;;10503090;28;20055;-60
2020/12/28 03:19:14;;;;;;;2.30;1.20;;;15.70;65.50;;;;;;10486297;28;20059;-59
2020/12/28 03:24:15;;;;;;;2.78;1.30;;;15.70;65.50;;;;;;10502919;28;20012;-59
2020/12/28 03:29:16;;;;;;;2.70;1.33;;;15.70;65.50;;;;;;10504030;28;20108;-59
2020/12/28 03:34:16;;;;;;;2.53;1.17;;;15.70;65.50;;;;;;10502574;28;20107;-60
2020/12/28 03:39:17;;;;;;;3.10;1.48;;;15.70;65.40;;;;;;10503488;28;20116;-59
2020/12/28 03:44:18;;;;;;;2.10;1.15;;;15.60;65.50;;;;;;10503389;28;20024;-60
2020/12/28 03:49:18;;;;;;;2.97;1.77;;;15.70;65.50;;;;;;10501854;28;20052;-59
2020/12/28 03:54:19;;;;;;;2.10;1.33;;;15.60;65.70;;;;;;10501895;28;20111;-60
2020/12/28 03:59:20;;;;;;;2.83;1.27;;;15.60;65.50;;;;;;10502743;28;20032;-59
2020/12/28 04:04:20;;;;;;;3.00;1.35;;;15.60;65.50;;;;;;10501266;28;20039;-60
2020/12/28 04:09:21;;;;;;;2.67;1.35;;;15.60;65.70;;;;;;10502354;28;20482;-61
2020/12/28 04:14:22;;;;;;;3.58;1.60;;;15.50;65.60;;;;;;10500908;28;20493;-60
2020/12/28 04:19:23;;;;;;;2.08;1.23;;;15.50;65.60;;;;;;10500439;28;20025;-60
2020/12/28 04:24:24;;;;;;;3.65;1.45;;;15.50;65.60;;;;;;10500646;28;20024;-60
2020/12/28 04:29:24;;;;;;;2.97;1.25;;;15.50;65.60;;;;;;10496471;28;20036;-59
2020/12/28 04:34:25;;;;;;;2.15;1.02;;;15.50;65.80;;;;;;10501324;28;20099;-60
2020/12/28 04:39:26;;;;;;;1.65;1.00;;;15.50;65.60;;;;;;10501054;28;20025;-60
2020/12/28 04:44:27;;;;;;;2.78;1.15;;;15.50;65.60;;;;;;10501597;28;20017;-60
2020/12/28 04:49:29;;;;;;;1.33;0.77;;;15.50;65.60;;;;;;10499756;28;20556;-60
2020/12/28 04:54:30;;;;;;;2.55;1.27;;;15.50;65.60;;;;;;10494945;28;20032;-60
2020/12/28 04:59:30;;;;;;;3.20;1.40;;;15.40;65.60;;;;;;10500531;28;20459;-60
2020/12/28 05:04:31;;;;;;;4.57;1.42;;;15.40;65.70;;;;;;10500101;28;20024;-61
2020/12/28 05:09:33;;;;;;;1.70;1.00;;;15.40;65.60;;;;;;10500105;28;20104;-61
2020/12/28 05:14:34;;;;;;;2.05;1.15;;;15.40;65.60;;;;;;10499909;28;20048;-60
2020/12/28 05:19:36;;;;;;;1.75;1.10;;;15.40;65.70;;;;;;10498211;28;20025;-61
2020/12/28 05:24:37;;;;;;;1.75;0.93;;;15.40;65.70;;;;;;10499485;28;20035;-61
2020/12/28 05:29:39;;;;;;;2.05;1.20;;;15.40;65.80;;;;;;10498717;28;20374;-59
2020/12/28 05:34:44;;;;;;;1.75;1.00;;;15.40;65.70;;;;;;10497575;28;20104;-59
2020/12/28 05:39:47;;;;;;;1.65;0.68;;;15.40;65.70;;;;;;10473961;28;20029;-60
2020/12/28 05:44:48;;;;;;;1.95;1.00;;;15.30;65.70;;;;;;10479915;28;20056;-60
2020/12/28 05:49:49;;;;;;;1.48;0.93;;;15.30;65.70;;;;;;10470778;28;20400;-60
2020/12/28 05:54:57;;;;;;;2.08;1.10;;;15.30;65.50;;;;;;10462795;28;20057;-60
2020/12/28 05:59:58;;;;;;;1.30;0.93;;;15.40;65.50;;;;;;10480067;28;20032;-60
2020/12/28 06:05:00;;;;;;;1.63;0.93;;;15.50;65.30;;;;;;10462384;28;20046;-60
2020/12/28 06:10:00;;;;;;;1.33;0.70;;;15.70;65.00;;;;;;10466821;28;20056;-62
2020/12/28 06:15:02;;;;;;;1.75;0.73;;;15.90;64.40;;;;;;10487845;28;20115;-60
2020/12/28 06:20:07;;;;;;;1.52;0.70;;;16.10;64.00;;;;;;10497273;28;20531;-60
2020/12/28 06:25:17;;;;;;;1.40;0.80;;;16.30;64.40;;;;;;10492396;28;20052;-61
2020/12/28 06:30:21;;;;;;;3.20;1.00;;;16.40;64.10;;;;;;10485678;28;20775;-59
2020/12/28 06:35:31;;;;;;;3.45;0.70;;;16.50;64.40;;;;;;10492013;28;20037;-58
2020/12/28 06:40:41;;;;;;;3.60;0.98;;;16.60;64.40;;;;;;10490596;28;20032;-58
2020/12/28 06:45:47;;;;;;;4.38;0.93;;;16.70;64.90;;;;;;10487503;28;20546;-59
2020/12/28 06:50:54;;;;;;;3.60;0.90;;;16.80;65.00;;;;;;10495466;28;20469;-59
2020/12/28 06:56:06;;;;;;;2.95;0.70;;;16.80;64.50;;;;;;10496544;28;20029;-59
2020/12/28 07:01:07;;;;;;;10.20;1.45;;;16.90;64.20;;;;;;10495331;28;20032;-59
2020/12/28 07:06:08;;;;;;;6.32;1.02;;;16.80;63.90;;;;;;10495889;28;20466;-59
2020/12/28 07:11:09;;;;;;;4.70;1.17;;;16.80;63.90;;;;;;10493558;28;20492;-58
2020/12/28 07:16:09;;;;;;;3.35;1.05;;;16.80;63.80;;;;;;10495333;28;20396;-57
2020/12/28 07:21:10;;;;;;;1.83;0.80;;;16.70;63.90;;;;;;10494299;28;20024;-57
2020/12/28 07:26:12;;;;;;;3.50;1.17;;;16.70;63.90;;;;;;10493160;28;20103;-58
2020/12/28 07:31:13;;;;;;;3.35;0.90;;;16.70;63.90;;;;;;10491804;28;20036;-59
2020/12/28 07:36:18;;;;;;;4.05;1.00;;;16.60;64.30;;;;;;10492383;28;20028;-60
2020/12/28 07:41:21;;;;;;;3.17;1.20;;;16.50;64.30;;;;;;10493451;28;20384;-59
2020/12/28 07:47:01;;;;;;;2.80;0.93;;;16.50;64.50;;;;;;10493615;28;20100;-59
2020/12/28 07:52:17;;;;;;;3.40;1.25;;;16.40;64.50;;;;;;10492683;28;20036;-59
2020/12/28 07:57:43;;;;;;;3.10;1.08;;;16.30;64.60;;;;;;10500133;28;20056;-59
2020/12/28 08:03:21;;;;;;;1.67;0.70;;;16.30;64.70;;;;;;10501331;28;20055;-59
2020/12/28 08:08:24;;;;;;;1.92;1.20;;;16.20;64.80;;;;;;10491668;28;20476;-59
2020/12/28 08:13:33;;;;;;;2.67;0.90;;;16.10;64.80;;;;;;10500506;28;20123;-59
2020/12/28 08:18:46;;;;;;;3.33;1.33;;;16.10;64.90;;;;;;10502042;28;20055;-60
2020/12/28 08:23:54;;;;;;;1.50;0.80;;;16.00;65.10;;;;;;10501598;28;20316;-59
2020/12/28 08:28:57;;;;;;;1.80;0.80;;;16.00;65.20;;;;;;10501396;28;20048;-59
2020/12/28 08:34:13;;;;;;;2.03;1.13;;;16.00;65.30;;;;;;10501266;28;20109;-60
2020/12/28 08:39:19;;;;;;;5.78;1.27;;;15.90;65.30;;;;;;10500919;28;20036;-60
2020/12/28 08:44:31;;;;;;;2.10;0.60;;;15.90;65.40;;;;;;10504592;28;20357;-59
2020/12/28 08:49:33;;;;;;;3.05;0.85;;;15.90;65.40;;;;;;10500557;28;20074;-59
2020/12/28 08:54:34;;;;;;;2.50;1.25;;;15.80;65.40;;;;;;10499349;28;20044;-60
2020/12/28 08:59:35;;;;;;;1.35;0.70;;;15.80;65.40;;;;;;10499898;28;20028;-60
2020/12/28 09:04:35;;;;;;;1.38;0.95;;;15.80;65.40;;;;;;10499392;28;20124;-59
2020/12/28 09:09:40;;;;;;;2.10;0.93;;;15.70;65.40;;;;;;10499701;28;20071;-59
2020/12/28 09:14:41;;;;;;;1.92;0.80;;;15.70;65.40;;;;;;10498188;28;20055;-59
2020/12/28 09:19:42;;;;;;;1.75;0.60;;;15.70;65.40;;;;;;10499468;28;20154;-59
2020/12/28 09:24:42;;;;;;;2.58;0.80;;;15.70;65.50;;;;;;10499186;28;20150;-59
2020/12/28 09:29:43;;;;;;;1.48;0.70;;;15.70;65.60;;;;;;10498990;28;20530;-59
2020/12/28 09:34:44;;;;;;;1.25;0.70;;;15.70;65.60;;;;;;10498878;28;20032;-60
2020/12/28 09:39:44;;;;;;;0.95;0.80;;;15.60;65.60;;;;;;10498270;28;20115;-59
2020/12/28 09:44:45;;;;;;;1.00;0.73;;;15.60;65.60;;;;;;10498509;28;20099;-59
2020/12/28 09:49:46;;;;;;;1.20;0.90;;;15.60;65.80;;;;;;10498065;28;20532;-59
2020/12/28 09:54:46;;;;;;;1.98;0.93;;;15.60;67.30;;;;;;10497889;28;20473;-59
2020/12/28 09:59:47;;;;;;;1.55;0.60;;;15.50;66.50;;;;;;10497815;28;20032;-59
2020/12/28 10:04:48;;;;;;;2.28;0.50;;;15.50;67.10;;;;;;10497489;28;20048;-62
2020/12/28 10:09:48;;;;;;;3.33;1.27;;;15.50;67.20;;;;;;10496349;28;20074;-59
2020/12/28 10:14:49;;;;;;;2.05;0.75;;;15.50;67.10;;;;;;10497015;28;20564;-59
2020/12/28 10:19:50;;;;;;;1.70;0.80;;;15.50;67.20;;;;;;10497303;28;20120;-59
2020/12/28 10:24:52;;;;;;;1.17;0.52;;;15.50;67.40;;;;;;10497199;28;20028;-59
2020/12/28 10:29:52;;;;;;;1.80;0.60;;;15.50;67.40;;;;;;10479067;28;20025;-59
2020/12/28 10:34:53;;;;;;;1.85;0.73;;;15.50;68.00;;;;;;10493972;28;20078;-59
2020/12/28 10:39:54;;;;;;;1.85;1.25;;;15.60;68.00;;;;;;10496413;28;20043;-59
2020/12/28 10:44:54;;;;;;;1.55;0.70;;;15.50;67.30;;;;;;10496484;28;20446;-59
2020/12/28 10:49:55;;;;;;;1.73;0.88;;;15.50;67.40;;;;;;10496375;28;20107;-59
2020/12/28 10:54:56;;;;;;;1.58;0.65;;;15.50;67.40;;;;;;10496201;28;20123;-59
2020/12/28 10:59:56;;;;;;;1.13;0.73;;;15.50;67.40;;;;;;10496108;28;20025;-59
2020/12/28 11:04:57;;;;;;;0.85;0.50;;;15.50;67.20;;;;;;10496275;28;20052;-59
2020/12/28 11:09:58;;;;;;;1.33;0.82;;;15.50;67.20;;;;;;10495783;28;20496;-59
2020/12/28 11:14:58;;;;;;;2.42;0.95;;;15.50;67.20;;;;;;10496168;28;20024;-60
2020/12/28 11:19:59;;;;;;;0.80;0.50;;;15.50;67.30;;;;;;10495722;28;20039;-59
2020/12/28 11:25:00;;;;;;;0.80;0.50;;;15.50;67.40;;;;;;10495721;28;20063;-60
2020/12/28 11:30:00;;;;;;;2.42;0.52;;;15.50;67.40;;;;;;10500811;28;20113;-58
2020/12/28 11:35:01;;;;;;;2.22;0.80;;;15.40;67.40;;;;;;10502369;28;20035;-59
2020/12/28 11:40:04;;;;;;;1.67;0.77;;;15.40;67.50;;;;;;10503255;28;20035;-59
2020/12/28 11:45:09;;;;;;;1.17;0.70;;;15.40;67.60;;;;;;10503320;28;20385;-59
2020/12/28 11:50:10;;;;;;;1.00;0.52;;;15.30;67.50;;;;;;10502856;28;20062;-59
2020/12/28 11:55:10;;;;;;;0.80;0.55;;;15.40;67.60;;;;;;10501481;28;20029;-59
2020/12/28 12:00:11;;;;;;;0.82;0.50;;;15.30;67.50;;;;;;10502418;28;20111;-58
2020/12/28 12:05:12;;;;;;;2.80;1.20;;;15.30;67.60;;;;;;10502179;28;20074;-59
2020/12/28 12:10:12;;;;;;;1.88;0.60;;;15.30;67.60;;;;;;10502082;28;20068;-59
2020/12/28 12:15:13;;;;;;;1.08;0.68;;;15.40;67.20;;;;;;10500594;28;20421;-59
2020/12/28 12:20:14;;;;;;;1.67;0.60;;;15.40;67.10;;;;;;10501744;28;20127;-59
2020/12/28 12:25:14;;;;;;;1.15;0.70;;;15.30;67.00;;;;;;10501584;28;20071;-59
2020/12/28 12:30:15;;;;;;;2.08;0.55;;;15.30;67.00;;;;;;10500506;28;20127;-59
2020/12/28 12:35:16;;;;;;;1.23;0.70;;;15.30;67.10;;;;;;10501286;28;20111;-59
2020/12/28 12:40:16;;;;;;;1.80;0.70;;;15.30;67.60;;;;;;10499719;28;20035;-59
2020/12/28 12:45:17;;;;;;;0.80;0.50;;;15.30;66.90;;;;;;10500964;28;20074;-59
2020/12/28 12:50:18;;;;;;;2.40;0.60;;;15.30;66.90;;;;;;10500169;28;20063;-59
2020/12/28 12:55:18;;;;;;;0.75;0.50;;;15.20;66.80;;;;;;10499947;28;20069;-59
2020/12/28 13:00:19;;;;;;;0.63;0.60;;;15.20;66.80;;;;;;10499648;28;20038;-59
2020/12/28 13:05:20;;;;;;;1.23;0.77;;;15.20;66.90;;;;;;10499961;28;20024;-59
2020/12/28 13:10:21;;;;;;;1.38;0.70;;;15.20;66.80;;;;;;10499767;28;20146;-59
2020/12/28 13:15:21;;;;;;;2.10;0.70;;;15.20;66.90;;;;;;10499620;28;20052;-59
2020/12/28 13:20:23;;;;;;;1.33;0.85;;;15.20;66.90;;;;;;10499810;28;20040;-59
2020/12/28 13:25:24;;;;;;;5.63;1.10;;;15.20;66.90;;;;;;10499370;28;20051;-59
2020/12/28 13:30:24;;;;;;;1.85;0.90;;;15.20;66.90;;;;;;10499073;28;20032;-59
2020/12/28 13:35:25;;;;;;;1.13;0.60;;;15.20;66.90;;;;;;10498420;28;20476;-60
2020/12/28 13:40:27;;;;;;;1.20;0.70;;;15.20;66.90;;;;;;10498657;28;20103;-59
2020/12/28 13:45:27;;;;;;;1.05;0.65;;;15.10;66.90;;;;;;10498868;28;20024;-59
2020/12/28 13:50:28;;;;;;;1.05;0.70;;;15.10;66.90;;;;;;10497513;28;20108;-59
2020/12/28 13:55:29;;;;;;;1.25;0.80;;;15.10;66.80;;;;;;10498103;28;20107;-59
2020/12/28 14:00:30;;;;;;;1.83;1.02;;;15.10;66.90;;;;;;10497650;28;20036;-59
2020/12/28 14:05:30;;;;;;;1.92;0.90;;;15.10;66.80;;;;;;10496475;28;20021;-59
2020/12/28 14:10:31;;;;;;;0.95;0.60;;;15.10;66.80;;;;;;10497224;28;20131;-59
2020/12/28 14:15:32;;;;;;;1.08;0.60;;;15.00;66.70;;;;;;10497340;28;20024;-59
2020/12/28 14:20:32;;;;;;;1.70;0.82;;;15.00;66.70;;;;;;10497240;28;20036;-59
2020/12/28 14:25:33;;;;;;;1.77;1.08;;;15.00;66.70;;;;;;10497147;28;20079;-59
2020/12/28 14:30:34;;;;;;;1.83;0.85;;;15.00;66.70;;;;;;10496838;28;20063;-59
2020/12/28 14:35:34;;;;;;;1.60;0.70;;;15.00;66.70;;;;;;10496895;28;20039;-59
2020/12/28 14:40:36;;;;;;;1.33;0.80;;;15.00;66.70;;;;;;10497027;28;20087;-59
2020/12/28 14:45:37;;;;;;;1.85;0.90;;;15.00;66.80;;;;;;10496817;28;20056;-58
2020/12/28 14:50:37;;;;;;;1.30;0.70;;;15.00;66.90;;;;;;10487135;28;20053;-59
2020/12/28 14:55:38;;;;;;;0.98;0.80;;;14.90;66.80;;;;;;10496313;28;20104;-59
2020/12/28 15:00:39;;;;;;;1.35;0.80;;;14.90;66.70;;;;;;10496100;28;20112;-59
2020/12/28 15:05:40;;;;;;;1.13;0.80;;;14.90;66.70;;;;;;10504251;28;20107;-59
2020/12/28 15:10:40;;;;;;;1.50;1.10;;;14.90;66.70;;;;;;10504641;28;20098;-59
2020/12/28 15:15:41;;;;;;;1.17;0.85;;;14.90;66.70;;;;;;10503016;28;20085;-59
2020/12/28 15:20:42;;;;;;;1.45;0.70;;;14.90;66.80;;;;;;10504350;28;20108;-59
2020/12/28 15:25:43;;;;;;;1.25;0.82;;;14.90;66.70;;;;;;10503909;28;20052;-59
2020/12/28 15:30:43;;;;;;;1.55;0.85;;;14.90;66.70;;;;;;10503545;28;20511;-59
2020/12/28 15:35:48;;;;;;;1.58;0.93;;;14.90;66.70;;;;;;10502593;28;20040;-59
2020/12/28 15:40:48;;;;;;;1.15;0.52;;;14.90;66.70;;;;;;10503208;28;20029;-60
2020/12/28 15:45:49;;;;;;;1.83;1.02;;;14.80;66.60;;;;;;10503158;28;20091;-60
2020/12/28 15:50:50;;;;;;;1.35;0.95;;;14.80;66.70;;;;;;10502893;28;20052;-60
2020/12/28 15:55:50;;;;;;;1.13;0.73;;;14.80;66.60;;;;;;10503323;28;20532;-59
2020/12/28 16:00:51;;;;;;;1.52;0.93;;;14.80;66.60;;;;;;10502789;28;20112;-59
2020/12/28 16:05:53;;;;;;;1.38;0.98;;;14.80;66.60;;;;;;10501769;28;20079;-59
2020/12/28 16:10:53;;;;;;;1.30;0.85;;;14.80;66.60;;;;;;10500967;28;20051;-58
2020/12/28 16:15:55;;;;;;;1.55;1.00;;;14.80;66.60;;;;;;10500890;28;20035;-59
2020/12/28 16:20:56;;;;;;;1.35;0.80;;;14.80;66.60;;;;;;10502035;28;20090;-59
2020/12/28 16:25:57;;;;;;;1.70;0.75;;;14.70;66.60;;;;;;10500604;28;20023;-59
2020/12/28 16:30:59;;;;;;;2.00;1.17;;;14.70;66.60;;;;;;10500892;28;20504;-59
2020/12/28 16:36:00;;;;;;;1.75;0.98;;;14.70;66.60;;;;;;10500602;28;20532;-59
2020/12/28 16:41:01;;;;;;;1.80;0.98;;;14.70;66.60;;;;;;10499313;28;20032;-59
2020/12/28 16:46:02;;;;;;;2.60;1.00;;;14.70;66.60;;;;;;10500226;28;20026;-59
2020/12/28 16:51:04;;;;;;;1.55;0.80;;;14.70;66.60;;;;;;10500045;28;20024;-59
2020/12/28 16:56:15;;;;;;;1.55;1.08;;;14.70;66.60;;;;;;10499745;28;20028;-59
2020/12/28 17:01:16;;;;;;;2.65;1.10;;;14.70;66.50;;;;;;10497965;28;20480;-60
2020/12/28 17:06:19;;;;;;;2.45;1.42;;;14.70;66.60;;;;;;10498243;28;20039;-60
2020/12/28 17:11:20;;;;;;;2.15;1.05;;;14.60;66.50;;;;;;10498022;28;20041;-62
2020/12/28 17:16:20;;;;;;;5.30;1.60;;;14.60;66.70;;;;;;10475327;28;20029;-62
2020/12/28 17:21:21;;;;;;;3.13;1.55;;;14.60;66.80;;;;;;10468503;28;20039;-61
2020/12/28 17:26:22;;;;;;;3.50;2.15;;;14.70;66.30;;;;;;10468221;28;20019;-61
2020/12/28 17:31:22;;;;;;;3.42;2.00;;;14.80;65.60;;;;;;10499121;28;20540;-61
2020/12/28 17:36:23;;;;;;;2.88;1.42;;;15.00;65.30;;;;;;10492467;28;20039;-61
2020/12/28 17:41:25;;;;;;;2.20;1.17;;;15.20;64.20;;;;;;10498094;28;20473;-60
2020/12/28 17:46:26;;;;;;;2.50;1.27;;;15.40;64.10;;;;;;10496653;28;20021;-61
2020/12/28 17:51:27;;;;;;;2.08;1.30;;;15.50;64.40;;;;;;10497812;28;20078;-61
2020/12/28 17:56:28;;;;;;;1.70;1.20;;;15.60;64.00;;;;;;10498282;28;20070;-60
2020/12/28 18:01:29;;;;;;;4.70;1.25;;;15.80;64.00;;;;;;10497014;28;20037;-60
2020/12/28 18:06:30;;;;;;;2.60;1.10;;;15.90;63.90;;;;;;10496600;28;20016;-60
2020/12/28 18:11:31;;;;;;;3.17;0.88;;;16.00;63.80;;;;;;10496697;28;20141;-59
2020/12/28 18:16:31;;;;;;;2.72;0.95;;;16.20;63.80;;;;;;10496909;28;20051;-60
2020/12/28 18:21:32;;;;;;;2.47;1.10;;;16.20;63.80;;;;;;10497319;28;20032;-60
2020/12/28 18:26:33;;;;;;;1.95;1.30;;;16.40;63.50;;;;;;10492935;28;20042;-59
2020/12/28 18:31:34;;;;;;;1.63;1.05;;;16.40;63.80;;;;;;10488661;28;20037;-59
2020/12/28 18:36:35;;;;;;;1.75;0.75;;;16.40;63.90;;;;;;10459385;28;20032;-59
2020/12/28 18:41:36;;;;;;;1.70;0.98;;;16.60;63.50;;;;;;10484109;28;20074;-59
2020/12/28 18:46:37;;;;;;;1.48;0.88;;;16.70;63.50;;;;;;10467985;28;20432;-59
2020/12/28 18:51:37;;;;;;;1.83;1.00;;;16.80;63.40;;;;;;10495410;28;20130;-59
2020/12/28 18:56:40;;;;;;;2.05;0.80;;;16.80;63.40;;;;;;10490135;28;20116;-59
2020/12/28 19:01:45;;;;;;;5.65;0.80;;;17.00;63.20;;;;;;10491144;28;20086;-60
2020/12/28 19:06:54;;;;;;;3.30;0.70;;;17.10;62.80;;;;;;10496172;28;20021;-60
2020/12/28 19:12:01;;;;;;;4.47;1.10;;;17.10;62.70;;;;;;10496006;28;20044;-61
2020/12/28 19:17:03;;;;;;;3.20;1.35;;;17.10;62.80;;;;;;10495942;28;20039;-61
2020/12/28 19:22:06;;;;;;;4.30;1.15;;;17.20;62.80;;;;;;10482897;28;20028;-58
2020/12/28 19:27:07;;;;;;;8.45;1.45;;;17.30;62.80;;;;;;10495861;28;20029;-60
2020/12/28 19:32:07;;;;;;;7.68;1.77;;;17.30;61.80;;;;;;10495708;28;20029;-62
2020/12/28 19:37:08;;;;;;;6.20;1.67;;;17.30;61.90;;;;;;10490351;28;20541;-61
2020/12/28 19:42:09;;;;;;;5.38;2.05;;;17.40;62.00;;;;;;10495590;28;20449;-62
2020/12/28 19:47:10;;;;;;;5.40;1.95;;;17.40;62.20;;;;;;10494636;28;20104;-61
2020/12/28 19:52:10;;;;;;;3.55;1.40;;;17.40;62.30;;;;;;10501190;28;20032;-61
2020/12/28 19:57:11;;;;;;;3.33;1.30;;;17.50;62.40;;;;;;10470596;28;20051;-61
2020/12/28 20:02:12;;;;;;;3.10;1.13;;;17.60;62.40;;;;;;10499673;28;20120;-61
2020/12/28 20:07:13;;;;;;;3.30;1.17;;;17.60;62.40;;;;;;10481097;28;20026;-61
2020/12/28 20:12:14;;;;;;;2.20;1.17;;;17.60;62.40;;;;;;10499117;28;20049;-61
2020/12/28 20:17:14;;;;;;;3.17;1.13;;;17.60;62.50;;;;;;10500023;28;20503;-61
2020/12/28 20:22:15;;;;;;;2.42;1.00;;;17.60;62.70;;;;;;10488723;28;20130;-61
2020/12/28 20:27:16;;;;;;;2.33;0.73;;;17.50;62.90;;;;;;10478375;28;20111;-60
2020/12/28 20:32:17;;;;;;;3.55;0.98;;;17.50;63.00;;;;;;10488228;28;20127;-60
2020/12/28 20:37:18;;;;;;;5.18;1.55;;;17.40;63.10;;;;;;10491586;28;20039;-61
2020/12/28 20:42:19;;;;;;;2.17;0.90;;;17.30;63.30;;;;;;10501355;28;20028;-61
2020/12/28 20:47:19;;;;;;;3.65;0.95;;;17.30;63.60;;;;;;10501041;28;20032;-61
2020/12/28 20:52:20;;;;;;;4.28;1.35;;;17.10;63.80;;;;;;10501753;28;20064;-61
2020/12/28 20:57:21;;;;;;;4.88;1.30;;;17.10;64.10;;;;;;10500900;28;20060;-60
2020/12/28 21:02:21;;;;;;;5.03;2.05;;;17.00;64.30;;;;;;10499362;28;20453;-62
2020/12/28 21:07:22;;;;;;;5.20;1.48;;;16.80;64.80;;;;;;10494282;28;20033;-58
2020/12/28 21:12:23;;;;;;;4.78;1.58;;;16.80;64.80;;;;;;10495246;28;20071;-59
2020/12/28 21:17:23;;;;;;;6.53;1.23;;;16.70;64.80;;;;;;10499603;28;20059;-60
2020/12/28 21:22:24;;;;;;;9.50;2.13;;;16.60;64.90;;;;;;10499565;28;20024;-59
2020/12/28 21:27:25;;;;;;;4.90;1.40;;;16.50;65.00;;;;;;10499327;28;20095;-60
2020/12/28 21:32:25;;;;;;;4.35;1.55;;;16.40;65.20;;;;;;10499210;28;20030;-60
2020/12/28 21:37:31;;;;;;;3.03;1.48;;;16.30;65.20;;;;;;10499415;28;20108;-59
2020/12/28 21:42:36;;;;;;;2.63;1.27;;;16.30;65.40;;;;;;10498522;28;20033;-59
2020/12/28 21:47:37;;;;;;;4.50;1.15;;;16.20;65.40;;;;;;10498624;28;20024;-60
2020/12/28 21:52:37;;;;;;;5.63;1.63;;;16.20;65.40;;;;;;10498579;28;20113;-60
2020/12/28 21:57:38;;;;;;;3.40;1.30;;;16.10;65.40;;;;;;10498448;28;20492;-61
2020/12/28 22:02:41;;;;;;;3.42;1.35;;;16.10;65.50;;;;;;10498220;28;20116;-59
2020/12/28 22:07:42;;;;;;;3.13;1.33;;;16.00;65.50;;;;;;10497864;28;20024;-59
2020/12/28 22:12:57;;;;;;;3.47;1.63;;;16.00;65.50;;;;;;10497150;28;20072;-59
2020/12/28 22:17:58;;;;;;;3.83;1.63;;;15.90;65.60;;;;;;10496508;28;20024;-58
2020/12/28 22:22:59;;;;;;;6.20;1.85;;;15.90;65.60;;;;;;10497565;28;20046;-59
2020/12/28 22:28:01;;;;;;;2.60;1.30;;;15.90;65.70;;;;;;10497479;28;20021;-59
2020/12/28 22:33:01;;;;;;;2.30;1.10;;;15.80;65.70;;;;;;10497370;28;20032;-58
2020/12/28 22:38:02;;;;;;;5.38;1.70;;;15.80;65.70;;;;;;10497295;28;20085;-60
2020/12/28 22:43:03;;;;;;;2.85;1.70;;;15.70;65.70;;;;;;10496856;28;20574;-60
2020/12/28 22:48:03;;;;;;;2.88;1.65;;;15.70;65.70;;;;;;10496582;28;20536;-60
2020/12/28 22:53:04;;;;;;;2.65;1.13;;;15.70;65.80;;;;;;10496081;28;20090;-61
2020/12/28 22:58:05;;;;;;;1.83;1.35;;;15.60;65.70;;;;;;10496305;28;20108;-59
2020/12/28 23:03:05;;;;;;;2.13;1.30;;;15.60;65.70;;;;;;10496198;28;20061;-59
2020/12/28 23:08:06;;;;;;;4.95;1.52;;;15.60;65.80;;;;;;10496312;28;20025;-59
2020/12/28 23:13:07;;;;;;;2.42;1.40;;;15.60;65.80;;;;;;10493878;28;20131;-59
2020/12/28 23:18:08;;;;;;;4.25;1.98;;;15.50;65.80;;;;;;10496577;28;20051;-59
2020/12/28 23:23:08;;;;;;;2.70;1.55;;;15.50;65.80;;;;;;10497802;28;20032;-59
2020/12/28 23:28:09;;;;;;;2.42;1.50;;;15.50;65.90;;;;;;10504336;28;20052;-59
2020/12/28 23:33:10;;;;;;;3.80;1.70;;;15.40;65.90;;;;;;10501123;28;20095;-59
2020/12/28 23:38:10;;;;;;;2.83;1.50;;;15.40;66.00;;;;;;10504363;28;20048;-59
2020/12/28 23:43:11;;;;;;;2.38;1.73;;;15.40;66.00;;;;;;10503648;28;20111;-59
2020/12/28 23:48:12;;;;;;;3.92;1.77;;;15.40;66.10;;;;;;10503361;28;20115;-58
2020/12/28 23:53:13;;;;;;;3.08;1.90;;;15.40;66.00;;;;;;10503349;28;20032;-59
2020/12/28 23:58:13;;;;;;;2.60;1.75;;;15.30;66.00;;;;;;10503163;28;20459;-58
